Time;durP1;ratioP1;P1;durP2;ratioP2;P2;SDS_P1;SDS_P2;PMS_P1;PMS_P2;Temp;Humidity;BMP_temperature;BMP_pressure;BME280_temperature;BME280_humidity;BME280_pressure;Samples;Min_cycle;Max_cycle;Signal;HPM_P1;HPM_P2
2023/05/04 00:00:54;;;;;;;3.20;1.10;;;12.80;99.90;;;;;;5092069;28;20409;-63
2023/05/04 00:03:21;;;;;;;2.30;0.90;;;12.70;99.90;;;;;;5093871;28;20502;-63
2023/05/04 00:05:48;;;;;;;1.40;1.00;;;12.70;99.90;;;;;;5095727;28;20421;-63
2023/05/04 00:08:16;;;;;;;1.30;0.93;;;12.70;99.90;;;;;;5096314;28;20439;-63
2023/05/04 00:10:43;;;;;;;1.77;1.00;;;12.60;99.90;;;;;;5095245;28;20426;-63
2023/05/04 00:13:10;;;;;;;1.67;0.98;;;12.50;99.90;;;;;;5094972;28;20429;-62
2023/05/04 00:15:37;;;;;;;1.10;0.90;;;12.50;99.90;;;;;;5095916;28;20467;-63
2023/05/04 00:18:04;;;;;;;2.80;0.90;;;12.50;99.90;;;;;;5095974;28;20483;-63
2023/05/04 00:20:31;;;;;;;1.30;0.90;;;12.40;99.90;;;;;;5095213;28;20422;-63
2023/05/04 00:22:58;;;;;;;2.30;0.90;;;12.40;99.90;;;;;;5095901;28;20430;-63
2023/05/04 00:25:27;;;;;;;2.00;1.00;;;12.30;99.90;;;;;;5096878;28;20828;-63
2023/05/04 00:27:54;;;;;;;1.40;0.90;;;12.40;99.90;;;;;;5097078;28;20429;-63
2023/05/04 00:30:22;;;;;;;1.45;1.00;;;12.40;99.90;;;;;;5096794;28;20434;-63
2023/05/04 00:32:49;;;;;;;1.90;1.00;;;12.30;99.90;;;;;;5096501;28;20867;-62
2023/05/04 00:35:16;;;;;;;1.30;0.90;;;12.30;99.90;;;;;;5097454;28;20488;-63
2023/05/04 00:37:44;;;;;;;1.50;1.00;;;12.20;99.90;;;;;;5097209;28;20425;-63
2023/05/04 00:40:12;;;;;;;1.60;1.00;;;12.20;99.90;;;;;;5096990;28;20477;-63
2023/05/04 00:42:40;;;;;;;2.40;1.08;;;12.20;99.90;;;;;;5097034;28;20433;-63
2023/05/04 00:45:08;;;;;;;1.90;1.00;;;12.20;99.90;;;;;;5095632;28;20421;-62
2023/05/04 00:47:36;;;;;;;2.10;0.93;;;12.20;99.90;;;;;;5095993;28;20434;-63
2023/05/04 00:50:04;;;;;;;1.50;1.00;;;12.10;99.90;;;;;;5096333;28;20413;-63
2023/05/04 00:52:31;;;;;;;1.90;1.00;;;12.10;99.90;;;;;;5096356;28;20475;-63
2023/05/04 00:55:00;;;;;;;2.00;0.90;;;12.10;99.90;;;;;;5096450;28;20414;-64
2023/05/04 00:57:27;;;;;;;1.80;1.00;;;12.10;99.90;;;;;;5096043;28;20506;-62
2023/05/04 00:59:56;;;;;;;1.50;1.00;;;12.10;99.90;;;;;;5096569;28;20505;-63
2023/05/04 01:02:23;;;;;;;1.70;1.00;;;12.10;99.90;;;;;;5095839;28;20494;-63
2023/05/04 01:04:50;;;;;;;1.70;1.00;;;12.10;99.90;;;;;;5095944;28;20430;-63
2023/05/04 01:07:26;;;;;;;1.70;1.00;;;12.10;99.90;;;;;;5094341;28;20482;-63
2023/05/04 01:09:59;;;;;;;2.10;1.10;;;12.10;99.90;;;;;;5093487;28;20461;-63
2023/05/04 01:12:33;;;;;;;1.60;1.20;;;12.10;99.90;;;;;;5092546;28;20426;-63
2023/05/04 01:15:03;;;;;;;4.07;1.75;;;12.00;99.90;;;;;;5092422;28;20421;-63
2023/05/04 01:17:30;;;;;;;2.40;1.35;;;12.00;99.90;;;;;;5093617;28;20702;-63
2023/05/04 01:19:57;;;;;;;2.13;1.08;;;12.10;99.90;;;;;;5093646;28;20421;-63
2023/05/04 01:22:26;;;;;;;1.98;1.15;;;12.00;99.90;;;;;;5094199;28;20846;-63
2023/05/04 01:24:53;;;;;;;1.60;1.10;;;12.00;99.90;;;;;;5094547;28;20520;-61
2023/05/04 01:27:26;;;;;;;1.50;1.10;;;12.00;99.90;;;;;;5095212;28;20430;-63
2023/05/04 01:30:00;;;;;;;2.58;1.30;;;12.00;99.90;;;;;;5094589;28;20443;-63
2023/05/04 01:32:28;;;;;;;1.45;1.00;;;11.90;99.90;;;;;;5095824;28;20853;-63
2023/05/04 01:34:56;;;;;;;2.17;1.20;;;11.90;99.90;;;;;;5094554;28;20414;-63
2023/05/04 01:37:25;;;;;;;2.20;1.20;;;11.90;99.90;;;;;;5096144;28;20448;-63
2023/05/04 01:39:52;;;;;;;1.60;1.10;;;11.80;99.90;;;;;;5095567;28;20418;-63
2023/05/04 01:42:19;;;;;;;1.98;1.10;;;11.80;99.90;;;;;;5096120;28;20479;-63
2023/05/04 01:44:46;;;;;;;2.42;1.40;;;11.80;99.90;;;;;;5095575;28;20422;-62
2023/05/04 01:47:13;;;;;;;2.15;1.30;;;11.80;99.90;;;;;;5095831;28;20857;-63
2023/05/04 01:49:40;;;;;;;2.13;1.30;;;11.80;99.90;;;;;;5094344;28;20759;-63
2023/05/04 01:52:07;;;;;;;1.85;1.30;;;11.80;99.90;;;;;;5095610;28;20436;-63
2023/05/04 01:54:35;;;;;;;2.10;1.20;;;11.70;99.90;;;;;;5095278;28;20421;-63
2023/05/04 01:57:02;;;;;;;2.20;1.20;;;11.80;99.90;;;;;;5095188;28;20840;-63
2023/05/04 01:59:30;;;;;;;1.88;1.45;;;11.80;99.90;;;;;;5095402;28;20418;-63
2023/05/04 02:01:57;;;;;;;2.60;1.70;;;11.80;99.90;;;;;;5094376;28;20528;-64
2023/05/04 02:04:24;;;;;;;3.42;1.50;;;11.80;99.90;;;;;;5093445;28;20430;-63
2023/05/04 02:06:51;;;;;;;2.10;1.50;;;11.70;99.90;;;;;;5093122;28;20425;-63
2023/05/04 02:09:18;;;;;;;1.80;1.23;;;11.70;99.90;;;;;;5092349;28;20421;-63
2023/05/04 02:11:46;;;;;;;4.10;1.70;;;11.70;99.90;;;;;;5090892;28;20494;-64
2023/05/04 02:14:13;;;;;;;1.95;1.40;;;11.60;99.90;;;;;;5091535;28;20849;-62
2023/05/04 02:16:40;;;;;;;3.58;1.60;;;11.60;99.90;;;;;;5093504;28;20421;-62
2023/05/04 02:19:07;;;;;;;3.20;1.40;;;11.60;99.90;;;;;;5093763;28;20714;-62
2023/05/04 02:21:35;;;;;;;2.08;1.50;;;11.60;99.90;;;;;;5093328;28;20430;-62
2023/05/04 02:24:05;;;;;;;2.60;1.60;;;11.50;99.90;;;;;;5093763;28;20495;-63
2023/05/04 02:26:32;;;;;;;2.70;1.63;;;11.50;99.90;;;;;;5094519;28;20706;-62
2023/05/04 02:29:02;;;;;;;3.50;1.77;;;11.50;99.90;;;;;;5094747;28;20422;-62
2023/05/04 02:31:29;;;;;;;2.80;1.60;;;11.40;99.90;;;;;;5094278;28;20429;-62
2023/05/04 02:33:56;;;;;;;2.58;1.60;;;11.40;99.90;;;;;;5094538;28;20702;-62
2023/05/04 02:36:23;;;;;;;3.00;1.50;;;11.40;99.90;;;;;;5094360;28;20437;-62
2023/05/04 02:38:50;;;;;;;3.42;2.38;;;11.40;99.90;;;;;;5094443;28;20472;-62
2023/05/04 02:41:17;;;;;;;2.30;1.80;;;11.40;99.90;;;;;;5094669;28;20517;-62
2023/05/04 02:43:44;;;;;;;3.42;2.00;;;11.40;99.90;;;;;;5094047;28;20434;-63
2023/05/04 02:46:13;;;;;;;2.42;1.80;;;11.40;99.90;;;;;;5093886;28;20472;-62
2023/05/04 02:48:40;;;;;;;4.80;2.63;;;11.30;99.90;;;;;;5094256;28;20558;-62
2023/05/04 02:51:07;;;;;;;3.38;2.17;;;11.30;99.90;;;;;;5093753;28;20425;-61
2023/05/04 02:53:34;;;;;;;4.50;2.90;;;11.30;99.90;;;;;;5093608;28;20418;-63
2023/05/04 02:56:01;;;;;;;4.20;2.50;;;11.30;99.90;;;;;;5094320;28;20851;-62
2023/05/04 02:58:28;;;;;;;4.85;3.10;;;11.30;99.90;;;;;;5094436;28;20425;-62
2023/05/04 03:00:55;;;;;;;4.13;2.50;;;11.30;99.90;;;;;;5093634;28;20798;-61
2023/05/04 03:03:23;;;;;;;3.95;2.30;;;11.30;99.90;;;;;;5094096;28;20516;-62
2023/05/04 03:05:50;;;;;;;4.33;2.83;;;11.20;99.90;;;;;;5093507;28;20409;-61
2023/05/04 03:08:17;;;;;;;4.32;3.10;;;11.20;99.90;;;;;;5093756;28;20490;-62
2023/05/04 03:10:44;;;;;;;3.75;2.35;;;11.20;99.90;;;;;;5094146;28;20429;-62
2023/05/04 03:13:11;;;;;;;2.95;1.92;;;11.20;99.90;;;;;;5094124;28;20430;-62
2023/05/04 03:15:38;;;;;;;3.28;2.00;;;11.20;99.90;;;;;;5094018;28;20848;-62
2023/05/04 03:18:06;;;;;;;3.13;1.70;;;11.20;99.90;;;;;;5100697;28;20514;-62
2023/05/04 03:20:35;;;;;;;3.33;1.90;;;11.20;99.90;;;;;;5114936;28;20736;-62
2023/05/04 03:23:02;;;;;;;3.05;2.50;;;11.10;99.90;;;;;;5113712;28;20474;-62
2023/05/04 03:25:30;;;;;;;4.13;2.40;;;11.10;99.90;;;;;;5113738;28;20428;-62
2023/05/04 03:27:57;;;;;;;3.03;1.80;;;11.10;99.90;;;;;;5113709;28;20427;-61
2023/05/04 03:30:25;;;;;;;3.03;2.00;;;11.00;99.90;;;;;;5112691;28;21000;-61
2023/05/04 03:32:52;;;;;;;2.72;1.98;;;11.00;99.90;;;;;;5113950;28;20431;-65
2023/05/04 03:35:19;;;;;;;2.97;1.92;;;11.00;99.90;;;;;;5113988;28;20416;-62
2023/05/04 03:37:48;;;;;;;3.50;2.03;;;11.00;99.90;;;;;;5115687;28;20428;-62
2023/05/04 03:40:15;;;;;;;4.22;2.53;;;10.90;99.90;;;;;;5118746;28;20439;-62
2023/05/04 03:42:42;;;;;;;4.15;2.22;;;10.90;99.90;;;;;;5117478;28;20925;-62
2023/05/04 03:45:10;;;;;;;3.40;2.03;;;10.90;99.90;;;;;;5117820;28;20874;-62
2023/05/04 03:47:37;;;;;;;3.40;2.10;;;10.90;99.90;;;;;;5118657;28;20485;-62
2023/05/04 03:50:08;;;;;;;3.00;1.90;;;10.90;99.90;;;;;;5116952;28;20422;-62
2023/05/04 03:52:36;;;;;;;4.75;1.92;;;10.90;99.90;;;;;;5116062;28;20442;-62
2023/05/04 03:55:05;;;;;;;3.00;2.00;;;10.90;99.90;;;;;;5115686;28;20500;-62
2023/05/04 03:57:32;;;;;;;4.50;2.17;;;10.80;99.90;;;;;;5113681;28;20442;-62
2023/05/04 03:59:59;;;;;;;3.30;2.15;;;10.80;99.90;;;;;;5104217;28;20427;-62
2023/05/04 04:02:26;;;;;;;3.50;2.25;;;10.70;99.90;;;;;;5115255;28;20448;-62
2023/05/04 04:04:53;;;;;;;2.80;1.90;;;10.70;99.90;;;;;;5116182;28;20449;-61
2023/05/04 04:07:20;;;;;;;3.58;2.03;;;10.60;99.90;;;;;;5115376;28;21082;-61
2023/05/04 04:09:47;;;;;;;4.32;2.35;;;10.60;99.90;;;;;;5115790;28;20419;-63
2023/05/04 04:12:18;;;;;;;4.15;2.67;;;10.60;99.90;;;;;;5104110;28;20772;-61
2023/05/04 04:14:45;;;;;;;3.63;2.37;;;10.60;99.90;;;;;;5111200;28;20418;-62
2023/05/04 04:17:12;;;;;;;3.97;2.53;;;10.60;99.90;;;;;;5100843;28;20793;-63
2023/05/04 04:19:39;;;;;;;3.83;2.67;;;10.60;99.90;;;;;;5095361;28;20487;-63
2023/05/04 04:22:06;;;;;;;4.47;2.30;;;10.80;99.90;;;;;;5111001;28;20432;-63
2023/05/04 04:24:33;;;;;;;5.73;3.50;;;10.90;99.90;;;;;;5116227;28;20428;-62
2023/05/04 04:27:00;;;;;;;4.00;2.75;;;10.80;99.90;;;;;;5112935;28;20520;-61
2023/05/04 04:29:29;;;;;;;3.42;2.05;;;10.80;99.90;;;;;;5116791;28;20458;-62
2023/05/04 04:31:56;;;;;;;4.80;3.33;;;10.70;99.90;;;;;;5116940;28;20739;-62
2023/05/04 04:34:23;;;;;;;3.40;2.60;;;10.70;99.90;;;;;;5117312;28;20434;-61
2023/05/04 04:36:50;;;;;;;4.20;2.30;;;10.70;99.90;;;;;;5116141;28;20882;-61
2023/05/04 04:39:17;;;;;;;3.50;2.13;;;10.70;99.90;;;;;;5115898;28;20420;-61
2023/05/04 04:41:44;;;;;;;4.55;2.70;;;10.70;99.90;;;;;;5116035;28;20469;-61
2023/05/04 04:44:11;;;;;;;4.22;2.50;;;10.60;99.90;;;;;;5107116;28;20991;-61
2023/05/04 04:46:39;;;;;;;2.80;1.93;;;10.60;99.90;;;;;;5107130;28;20455;-62
2023/05/04 04:49:06;;;;;;;4.95;2.65;;;10.60;99.90;;;;;;5115005;28;20421;-62
2023/05/04 04:51:33;;;;;;;4.80;2.50;;;10.60;99.90;;;;;;5114077;28;20428;-62
2023/05/04 04:54:00;;;;;;;3.13;2.47;;;10.60;99.90;;;;;;5114378;28;20416;-62
2023/05/04 04:56:28;;;;;;;4.65;3.03;;;10.70;99.90;;;;;;5113623;28;20463;-62
2023/05/04 04:58:54;;;;;;;4.18;2.80;;;10.70;99.90;;;;;;5112616;28;20496;-62
2023/05/04 05:01:22;;;;;;;5.05;2.58;;;10.80;99.90;;;;;;5113888;28;20431;-62
2023/05/04 05:03:50;;;;;;;4.53;2.60;;;10.70;99.90;;;;;;5110973;28;20772;-62
2023/05/04 05:06:17;;;;;;;3.92;2.60;;;10.80;99.90;;;;;;5111374;28;20535;-62
2023/05/04 05:08:45;;;;;;;3.90;3.15;;;10.80;99.90;;;;;;5113979;28;20423;-62
2023/05/04 05:11:12;;;;;;;5.18;3.35;;;10.90;99.90;;;;;;5114127;28;20898;-62
2023/05/04 05:13:39;;;;;;;4.55;3.42;;;10.90;99.90;;;;;;5114463;28;20409;-62
2023/05/04 05:16:06;;;;;;;4.78;3.83;;;11.00;99.90;;;;;;5112941;28;20415;-62
2023/05/04 05:18:33;;;;;;;5.53;4.15;;;11.00;99.90;;;;;;5111334;28;20432;-62
2023/05/04 05:21:02;;;;;;;5.80;3.53;;;11.10;99.90;;;;;;5113708;28;20436;-62
2023/05/04 05:23:29;;;;;;;6.07;3.80;;;11.10;99.90;;;;;;5110852;28;20633;-62
2023/05/04 05:25:56;;;;;;;5.10;3.85;;;11.10;99.90;;;;;;5111686;28;20428;-61
2023/05/04 05:28:23;;;;;;;4.53;3.60;;;11.10;99.90;;;;;;5111688;28;21079;-62
2023/05/04 05:30:50;;;;;;;6.10;3.70;;;11.10;99.90;;;;;;5112477;28;20416;-61
2023/05/04 05:33:17;;;;;;;5.00;4.03;;;11.10;99.90;;;;;;5112163;28;20427;-62
2023/05/04 05:35:45;;;;;;;5.50;3.70;;;11.20;99.90;;;;;;5112748;28;20476;-62
2023/05/04 05:38:15;;;;;;;4.72;3.30;;;11.40;99.90;;;;;;5112876;28;20803;-62
2023/05/04 05:40:42;;;;;;;4.77;4.27;;;11.50;99.90;;;;;;5112201;28;20529;-62
2023/05/04 05:43:09;;;;;;;5.10;2.40;;;11.50;99.90;;;;;;5112185;28;20428;-62
2023/05/04 05:45:36;;;;;;;4.80;3.53;;;11.70;99.90;;;;;;5111259;28;20450;-62
2023/05/04 05:48:03;;;;;;;4.50;3.80;;;11.70;99.90;;;;;;5113060;28;20847;-60
2023/05/04 05:50:30;;;;;;;5.07;3.75;;;11.70;99.90;;;;;;5111450;28;20416;-61
2023/05/04 05:52:57;;;;;;;5.82;4.10;;;11.70;99.90;;;;;;5111249;28;20432;-62
2023/05/04 05:55:25;;;;;;;5.18;3.53;;;11.70;99.90;;;;;;5111658;28;20470;-61
2023/05/04 05:57:52;;;;;;;5.00;3.90;;;11.80;99.90;;;;;;5111318;28;20459;-61
2023/05/04 06:00:20;;;;;;;3.85;3.20;;;11.80;99.90;;;;;;5111371;28;20793;-63
2023/05/04 06:02:47;;;;;;;4.22;3.20;;;11.90;99.90;;;;;;5110251;28;20496;-61
2023/05/04 06:05:14;;;;;;;7.45;3.80;;;11.90;99.90;;;;;;5110695;28;20642;-62
2023/05/04 06:07:41;;;;;;;7.50;3.55;;;11.90;99.90;;;;;;5110446;28;20464;-59
2023/05/04 06:10:09;;;;;;;5.45;3.60;;;12.10;99.90;;;;;;5111427;28;20424;-60
2023/05/04 06:12:37;;;;;;;4.85;3.50;;;12.20;99.90;;;;;;5112265;28;20424;-60
2023/05/04 06:15:05;;;;;;;6.18;4.88;;;12.20;99.90;;;;;;5111992;28;20416;-59
2023/05/04 06:17:32;;;;;;;4.13;3.23;;;12.20;99.90;;;;;;5108745;28;20424;-59
2023/05/04 06:19:59;;;;;;;7.13;4.20;;;12.30;99.90;;;;;;5110446;28;20445;-59
2023/05/04 06:22:26;;;;;;;6.22;3.75;;;12.30;99.90;;;;;;5109060;28;20480;-61
2023/05/04 06:24:53;;;;;;;5.47;3.80;;;12.30;99.90;;;;;;5108851;28;20519;-59
2023/05/04 06:27:20;;;;;;;4.70;3.97;;;12.50;99.90;;;;;;5105205;28;20420;-62
2023/05/04 06:29:49;;;;;;;7.00;4.20;;;12.60;99.90;;;;;;5105177;28;20859;-59
2023/05/04 06:32:16;;;;;;;5.70;4.40;;;12.70;99.90;;;;;;5108155;28;20459;-61
2023/05/04 06:34:43;;;;;;;5.55;3.20;;;12.70;99.90;;;;;;5107231;28;20486;-60
2023/05/04 06:37:10;;;;;;;5.95;4.57;;;12.80;99.90;;;;;;5110108;28;20465;-60
2023/05/04 06:39:37;;;;;;;6.00;4.40;;;12.80;99.90;;;;;;5110037;28;20416;-60
2023/05/04 06:42:04;;;;;;;4.70;4.15;;;12.90;99.90;;;;;;5111497;28;20522;-60
2023/05/04 06:44:37;;;;;;;4.32;3.78;;;13.00;99.90;;;;;;5109586;28;20548;-59
2023/05/04 06:47:06;;;;;;;3.47;3.17;;;13.00;99.90;;;;;;5108515;28;20413;-61
2023/05/04 06:49:33;;;;;;;8.32;4.80;;;13.10;99.90;;;;;;5109098;28;20847;-60
2023/05/04 06:52:00;;;;;;;6.30;4.10;;;13.30;99.90;;;;;;5111242;28;20439;-59
2023/05/04 06:54:28;;;;;;;5.20;3.80;;;13.50;99.90;;;;;;5109365;28;20915;-59
2023/05/04 06:56:55;;;;;;;5.25;3.92;;;13.70;99.90;;;;;;5108456;28;20706;-58
2023/05/04 06:59:22;;;;;;;6.15;4.10;;;13.70;99.90;;;;;;5106539;28;20416;-59
2023/05/04 07:01:49;;;;;;;5.53;4.38;;;13.70;99.90;;;;;;5108082;28;20568;-59
2023/05/04 07:04:21;;;;;;;5.85;4.00;;;13.70;99.90;;;;;;5110461;28;20427;-60
2023/05/04 07:06:49;;;;;;;6.03;3.95;;;13.80;99.90;;;;;;5108284;28;20432;-60
2023/05/04 07:09:16;;;;;;;6.80;4.05;;;14.00;99.90;;;;;;5107483;28;20951;-59
2023/05/04 07:11:43;;;;;;;6.10;4.30;;;14.00;99.90;;;;;;5106616;28;20511;-59
2023/05/04 07:14:11;;;;;;;4.87;3.53;;;14.10;99.90;;;;;;5106783;28;20715;-59
2023/05/04 07:16:38;;;;;;;5.10;4.05;;;14.30;99.90;;;;;;5097340;28;20516;-60
2023/05/04 07:19:05;;;;;;;4.25;3.08;;;14.50;99.90;;;;;;5096877;28;20470;-60
2023/05/04 07:21:34;;;;;;;6.15;4.07;;;14.60;99.90;;;;;;5109790;28;20424;-60
2023/05/04 07:24:01;;;;;;;5.07;3.25;;;14.70;99.90;;;;;;5110878;28;20420;-60
2023/05/04 07:26:28;;;;;;;4.50;4.10;;;14.70;99.90;;;;;;5109642;28;21053;-60
2023/05/04 07:28:55;;;;;;;5.38;4.25;;;14.60;99.90;;;;;;5111088;28;20878;-60
2023/05/04 07:31:22;;;;;;;4.80;3.97;;;14.70;99.90;;;;;;5110857;28;21173;-63
2023/05/04 07:33:49;;;;;;;5.30;3.67;;;14.80;99.90;;;;;;5108455;28;20427;-60
2023/05/04 07:36:16;;;;;;;4.40;3.50;;;14.90;99.90;;;;;;5106462;28;20416;-59
2023/05/04 07:38:45;;;;;;;6.05;4.15;;;15.10;99.90;;;;;;5108543;28;20509;-61
2023/05/04 07:41:12;;;;;;;4.72;3.72;;;15.30;99.90;;;;;;5105910;28;20430;-60
2023/05/04 07:43:40;;;;;;;6.03;4.30;;;15.40;99.90;;;;;;5088286;28;20909;-60
2023/05/04 07:46:07;;;;;;;3.70;3.30;;;15.50;99.90;;;;;;5107165;28;20531;-60
2023/05/04 07:48:35;;;;;;;4.45;3.85;;;15.50;99.90;;;;;;5109071;28;20424;-61
2023/05/04 07:51:02;;;;;;;4.93;3.90;;;15.70;99.90;;;;;;5104682;28;20416;-59
2023/05/04 07:53:30;;;;;;;4.30;3.15;;;15.80;99.90;;;;;;5105829;28;20451;-61
2023/05/04 07:56:08;;;;;;;4.75;4.20;;;15.80;99.90;;;;;;5108342;28;20482;-60
2023/05/04 07:58:36;;;;;;;5.93;4.40;;;15.70;99.90;;;;;;5109351;28;20904;-58
2023/05/04 08:01:04;;;;;;;8.27;4.00;;;15.90;99.90;;;;;;5099637;28;20444;-60
2023/05/04 08:03:31;;;;;;;6.57;3.80;;;16.10;99.90;;;;;;5108576;28;20458;-61
2023/05/04 08:05:58;;;;;;;6.22;3.40;;;16.10;99.90;;;;;;5112513;28;20515;-61
2023/05/04 08:08:26;;;;;;;5.30;3.30;;;16.20;99.90;;;;;;5106599;28;20915;-61
2023/05/04 08:10:53;;;;;;;4.10;3.50;;;16.40;99.90;;;;;;5100578;28;20497;-59
2023/05/04 08:13:22;;;;;;;4.50;3.40;;;16.60;99.90;;;;;;5107105;28;20754;-60
2023/05/04 08:15:50;;;;;;;4.90;3.47;;;16.70;99.90;;;;;;5108354;28;20503;-60
2023/05/04 08:18:18;;;;;;;3.10;2.25;;;16.90;99.90;;;;;;5094687;28;20444;-60
2023/05/04 08:20:45;;;;;;;2.30;1.80;;;17.00;99.90;;;;;;5088073;28;20452;-59
2023/05/04 08:23:12;;;;;;;2.07;1.50;;;17.10;99.90;;;;;;5090125;28;20429;-61
2023/05/04 08:25:41;;;;;;;3.00;1.67;;;17.30;99.90;;;;;;5107437;28;20480;-60
2023/05/04 08:28:10;;;;;;;2.88;1.55;;;17.30;99.90;;;;;;5106008;28;20436;-59
2023/05/04 08:30:40;;;;;;;2.78;1.75;;;17.40;99.90;;;;;;5110936;28;20501;-59
2023/05/04 08:33:09;;;;;;;2.40;1.60;;;17.50;99.90;;;;;;5112970;28;20463;-60
2023/05/04 08:35:38;;;;;;;1.70;1.30;;;17.50;99.90;;;;;;5113309;28;20495;-60
2023/05/04 08:38:06;;;;;;;2.00;1.58;;;17.60;99.90;;;;;;5110040;28;20439;-59
2023/05/04 08:40:34;;;;;;;1.80;1.50;;;17.70;99.90;;;;;;5107051;28;21003;-59
2023/05/04 08:43:03;;;;;;;2.20;1.80;;;17.80;99.90;;;;;;5108041;28;20459;-59
2023/05/04 08:45:31;;;;;;;1.83;1.40;;;17.90;99.90;;;;;;5111348;28;21086;-59
2023/05/04 08:48:02;;;;;;;2.20;2.00;;;18.00;99.90;;;;;;5112478;28;20432;-60
2023/05/04 08:50:30;;;;;;;1.80;1.30;;;18.10;99.90;;;;;;5110368;28;20866;-61
2023/05/04 08:52:59;;;;;;;2.00;1.30;;;18.10;99.90;;;;;;5110311;28;20498;-61
2023/05/04 08:55:27;;;;;;;1.80;1.42;;;18.30;99.90;;;;;;5108346;28;21093;-64
2023/05/04 08:57:55;;;;;;;1.65;1.20;;;18.40;99.90;;;;;;5103931;28;20527;-65
2023/05/04 09:00:23;;;;;;;2.30;1.20;;;18.50;99.90;;;;;;5102194;28;20416;-63
2023/05/04 09:02:52;;;;;;;1.90;1.20;;;18.70;99.90;;;;;;5109598;28;20526;-63
2023/05/04 09:05:21;;;;;;;2.10;1.10;;;18.80;99.90;;;;;;5108493;28;20433;-62
2023/05/04 09:07:51;;;;;;;1.95;1.30;;;18.80;99.90;;;;;;5103394;28;20840;-60
2023/05/04 09:10:18;;;;;;;1.80;1.20;;;18.80;99.90;;;;;;5108970;28;20937;-60
2023/05/04 09:12:47;;;;;;;1.67;1.10;;;18.90;99.90;;;;;;5108361;28;20443;-60
2023/05/04 09:15:16;;;;;;;1.42;1.20;;;19.10;99.90;;;;;;5112829;28;20503;-59
2023/05/04 09:17:44;;;;;;;2.70;1.30;;;19.20;99.90;;;;;;5112560;28;20433;-59
2023/05/04 09:20:13;;;;;;;3.20;1.25;;;19.30;99.90;;;;;;5111987;28;20417;-62
2023/05/04 09:22:42;;;;;;;1.70;1.10;;;19.50;99.90;;;;;;5111898;28;20432;-54
2023/05/04 09:25:12;;;;;;;1.98;1.20;;;19.70;99.90;;;;;;5110496;28;20420;-60
2023/05/04 09:27:41;;;;;;;2.15;1.35;;;19.60;99.90;;;;;;5100826;28;20424;-59
2023/05/04 09:30:10;;;;;;;1.80;1.30;;;19.70;99.90;;;;;;5111611;28;20428;-59
2023/05/04 09:32:44;;;;;;;1.60;1.50;;;19.90;99.90;;;;;;5113007;28;20431;-60
2023/05/04 09:35:12;;;;;;;3.28;1.52;;;20.00;99.90;;;;;;5102451;28;20485;-60
2023/05/04 09:37:45;;;;;;;1.40;1.30;;;20.00;99.90;;;;;;5111421;28;20431;-61
2023/05/04 09:40:13;;;;;;;1.70;1.00;;;19.90;99.90;;;;;;5110597;28;20420;-61
2023/05/04 09:42:40;;;;;;;2.00;1.20;;;19.90;99.90;;;;;;5106507;28;20781;-62
2023/05/04 09:45:09;;;;;;;1.50;1.10;;;19.90;99.90;;;;;;5107787;28;20419;-61
2023/05/04 09:47:38;;;;;;;1.50;1.30;;;19.90;99.90;;;;;;5105007;28;21006;-60
2023/05/04 09:50:16;;;;;;;1.77;1.20;;;19.80;99.90;;;;;;5108211;28;20523;-61
2023/05/04 09:52:45;;;;;;;1.50;1.20;;;20.00;99.90;;;;;;5088936;28;20499;-62
2023/05/04 09:55:13;;;;;;;2.20;1.10;;;20.00;99.90;;;;;;5103034;28;20439;-62
2023/05/04 09:57:42;;;;;;;2.40;1.10;;;20.10;99.60;;;;;;5106934;28;20955;-59
2023/05/04 10:00:12;;;;;;;1.85;1.20;;;20.10;99.90;;;;;;5096176;28;20446;-61
2023/05/04 10:02:39;;;;;;;1.70;1.00;;;20.40;99.50;;;;;;5097897;28;20448;-61
2023/05/04 10:05:08;;;;;;;2.15;1.02;;;20.80;99.30;;;;;;5106455;28;20455;-60
2023/05/04 10:07:35;;;;;;;3.80;1.15;;;21.00;98.80;;;;;;5095746;28;20430;-61
2023/05/04 10:10:04;;;;;;;1.40;1.00;;;21.10;95.70;;;;;;5103423;28;20482;-60
2023/05/04 10:12:31;;;;;;;3.80;1.20;;;21.10;95.40;;;;;;5103211;28;20498;-62
2023/05/04 10:14:58;;;;;;;3.65;2.60;;;21.10;96.10;;;;;;5107576;28;20451;-62
2023/05/04 10:17:37;;;;;;;3.10;1.27;;;21.30;95.50;;;;;;5107873;28;20501;-61
2023/05/04 10:20:14;;;;;;;1.88;1.00;;;21.80;94.10;;;;;;5105961;28;20427;-61
2023/05/04 10:23:02;;;;;;;1.30;0.90;;;21.90;93.40;;;;;;5102610;28;20469;-60
2023/05/04 10:25:56;;;;;;;1.23;1.00;;;22.20;88.80;;;;;;5106442;28;20435;-62
2023/05/04 10:28:35;;;;;;;2.00;1.00;;;22.10;85.10;;;;;;5107073;28;20432;-61
2023/05/04 10:31:05;;;;;;;2.00;0.90;;;22.10;84.10;;;;;;5108107;28;20876;-61
2023/05/04 10:33:38;;;;;;;1.20;0.90;;;22.30;83.90;;;;;;5104604;28;20821;-61
2023/05/04 10:36:06;;;;;;;1.30;0.90;;;22.50;81.50;;;;;;5105883;28;20435;-60
2023/05/04 10:38:34;;;;;;;2.60;1.20;;;22.80;79.80;;;;;;5109502;28;20709;-60
2023/05/04 10:41:14;;;;;;;1.10;0.93;;;22.80;78.70;;;;;;5103420;28;20439;-61
2023/05/04 10:43:41;;;;;;;1.30;1.10;;;23.00;78.60;;;;;;5101624;28;22308;-62
2023/05/04 10:46:16;;;;;;;2.05;0.90;;;23.40;75.90;;;;;;5106657;28;20490;-62
2023/05/04 10:48:43;;;;;;;1.40;1.00;;;23.60;72.70;;;;;;5108164;28;20416;-62
2023/05/04 10:51:19;;;;;;;1.70;1.00;;;23.70;68.80;;;;;;5101562;28;20504;-63
2023/05/04 10:53:46;;;;;;;1.90;1.00;;;23.60;68.20;;;;;;5104888;28;20432;-61
2023/05/04 10:56:22;;;;;;;1.10;0.90;;;23.20;67.00;;;;;;5091154;28;20436;-63
2023/05/04 10:58:50;;;;;;;1.40;0.88;;;23.50;69.60;;;;;;5094748;28;20428;-62
2023/05/04 11:01:17;;;;;;;1.10;0.90;;;24.00;69.00;;;;;;5097779;28;20433;-62
2023/05/04 11:03:45;;;;;;;1.10;0.90;;;24.00;65.20;;;;;;5105427;28;20432;-62
2023/05/04 11:06:17;;;;;;;1.20;0.90;;;24.10;64.50;;;;;;5105247;28;20435;-62
2023/05/04 11:08:46;;;;;;;1.08;0.80;;;24.20;63.60;;;;;;5107592;28;20534;-62
2023/05/04 11:11:13;;;;;;;1.40;1.00;;;24.40;63.10;;;;;;5105074;28;20424;-61
2023/05/04 11:13:45;;;;;;;1.17;0.90;;;24.90;61.20;;;;;;5107387;28;20431;-63
2023/05/04 11:16:13;;;;;;;1.20;1.00;;;25.20;59.50;;;;;;5102186;28;20435;-61
2023/05/04 11:18:41;;;;;;;1.10;0.85;;;25.20;58.40;;;;;;5107313;28;20428;-61
2023/05/04 11:21:08;;;;;;;1.08;0.90;;;25.10;58.70;;;;;;5104050;28;20436;-61
2023/05/04 11:23:36;;;;;;;1.30;1.00;;;25.00;56.80;;;;;;5104369;28;20509;-61
2023/05/04 11:26:08;;;;;;;1.27;1.03;;;25.00;57.10;;;;;;5107876;28;20696;-61
2023/05/04 11:28:36;;;;;;;1.27;0.90;;;24.60;56.90;;;;;;5107249;28;20484;-62
2023/05/04 11:31:14;;;;;;;1.17;0.90;;;24.80;55.90;;;;;;5104123;28;20438;-60
2023/05/04 11:33:49;;;;;;;1.80;0.80;;;24.50;56.20;;;;;;5107313;28;20681;-60
2023/05/04 11:36:17;;;;;;;1.90;0.80;;;24.70;55.20;;;;;;5109240;28;20451;-59
2023/05/04 11:38:45;;;;;;;0.93;0.80;;;24.70;56.10;;;;;;5108129;28;20416;-60
2023/05/04 11:41:13;;;;;;;1.70;1.00;;;25.00;55.40;;;;;;5101263;28;20734;-60
2023/05/04 11:43:45;;;;;;;2.60;0.90;;;24.90;54.60;;;;;;5099050;28;20525;-60
2023/05/04 11:46:15;;;;;;;2.17;1.00;;;25.00;54.60;;;;;;5103703;28;20462;-59
2023/05/04 11:48:43;;;;;;;1.00;0.80;;;24.50;54.10;;;;;;5108331;28;21135;-60
2023/05/04 11:51:10;;;;;;;1.60;0.90;;;24.20;52.00;;;;;;5102076;28;20432;-60
2023/05/04 11:53:39;;;;;;;1.73;1.10;;;24.50;52.50;;;;;;5106702;28;20465;-60
2023/05/04 11:56:07;;;;;;;1.50;0.90;;;24.70;53.20;;;;;;5103531;28;20459;-60
2023/05/04 11:58:35;;;;;;;1.63;1.00;;;24.90;53.70;;;;;;5111375;28;20454;-60
2023/05/04 12:01:02;;;;;;;1.20;1.00;;;24.80;53.70;;;;;;5107553;28;20427;-60
2023/05/04 12:03:33;;;;;;;2.17;1.40;;;24.50;52.90;;;;;;5109922;28;20441;-63
2023/05/04 12:06:02;;;;;;;4.10;3.40;;;24.80;52.10;;;;;;5110880;28;20756;-60
2023/05/04 12:08:33;;;;;;;1.60;1.30;;;24.60;53.00;;;;;;5105044;28;20430;-62
2023/05/04 12:11:14;;;;;;;1.00;0.80;;;25.00;53.30;;;;;;5110047;28;20436;-59
2023/05/04 12:13:44;;;;;;;1.15;0.80;;;25.30;52.50;;;;;;5109149;28;20760;-60
2023/05/04 12:16:13;;;;;;;1.13;0.90;;;25.50;52.80;;;;;;5110245;28;20415;-60
2023/05/04 12:18:44;;;;;;;1.10;0.90;;;25.80;51.70;;;;;;5110040;28;20511;-59
2023/05/04 12:21:14;;;;;;;1.70;1.10;;;25.60;51.00;;;;;;5107162;28;20439;-60
2023/05/04 12:23:46;;;;;;;1.50;1.35;;;25.70;51.50;;;;;;5111831;28;20432;-61
2023/05/04 12:26:15;;;;;;;1.93;1.00;;;25.90;51.60;;;;;;5102252;28;20472;-61
2023/05/04 12:28:45;;;;;;;1.20;0.80;;;26.10;50.70;;;;;;5107978;28;20778;-60
2023/05/04 12:31:14;;;;;;;1.60;1.10;;;26.00;50.20;;;;;;5099085;28;20424;-60
2023/05/04 12:33:46;;;;;;;1.25;0.90;;;25.50;50.60;;;;;;5100906;28;20447;-60
2023/05/04 12:36:14;;;;;;;1.30;0.95;;;25.40;51.00;;;;;;5105052;28;20476;-58
2023/05/04 12:38:43;;;;;;;1.25;1.00;;;25.10;50.40;;;;;;5102226;28;20424;-59
2023/05/04 12:41:12;;;;;;;1.55;1.00;;;25.10;49.80;;;;;;5108353;28;20789;-57
2023/05/04 12:43:41;;;;;;;1.25;0.95;;;25.10;50.50;;;;;;5094289;28;20409;-58
2023/05/04 12:46:09;;;;;;;1.70;1.08;;;25.00;51.70;;;;;;5102987;28;20932;-57
2023/05/04 12:48:36;;;;;;;0.90;0.80;;;25.30;52.10;;;;;;5104808;28;20424;-58
2023/05/04 12:51:05;;;;;;;1.80;1.00;;;25.90;50.30;;;;;;5108669;28;20458;-58
2023/05/04 12:53:32;;;;;;;2.60;1.13;;;25.70;50.10;;;;;;5105457;28;20416;-58